createdAt,value
2022-11-02T00:00:46.753Z,20.60
2022-11-02T00:05:51.113Z,20.60
2022-11-02T00:10:54.080Z,20.60
2022-11-02T00:15:57.468Z,20.60
2022-11-02T00:21:02.606Z,20.60
2022-11-02T00:26:06.044Z,20.60
2022-11-02T00:31:09.020Z,20.60
2022-11-02T00:36:13.517Z,20.60
2022-11-02T00:41:16.690Z,20.60
2022-11-02T00:46:20.198Z,20.60
2022-11-02T00:51:24.524Z,20.60
2022-11-02T00:56:27.496Z,20.60
2022-11-02T01:01:30.507Z,20.50
2022-11-02T01:06:34.967Z,20.60
2022-11-02T01:11:38.424Z,20.50
2022-11-02T01:16:41.659Z,20.50
2022-11-02T01:21:46.074Z,20.50
2022-11-02T01:26:52.417Z,20.50
2022-11-02T01:31:55.484Z,20.50
2022-11-02T01:36:59.882Z,20.40
2022-11-02T01:42:02.916Z,20.50
2022-11-02T01:47:09.046Z,20.40
2022-11-02T01:52:17.848Z,20.50
2022-11-02T01:57:23.168Z,20.40
2022-11-02T02:02:28.162Z,20.40
2022-11-02T02:07:34.034Z,20.40
2022-11-02T02:12:39.509Z,20.50
2022-11-02T02:17:51.362Z,20.50
2022-11-02T02:23:23.265Z,20.40
2022-11-02T02:28:34.620Z,20.40
2022-11-02T02:33:44.684Z,20.40
2022-11-02T02:38:50.934Z,20.40
2022-11-02T02:43:57.156Z,20.40
2022-11-02T02:49:02.084Z,20.40
2022-11-02T02:54:10.576Z,20.40
2022-11-02T02:59:21.557Z,20.40
2022-11-02T03:04:24.517Z,20.40
2022-11-02T03:09:33.753Z,20.40
2022-11-02T03:14:49.741Z,20.40
2022-11-02T03:19:58.511Z,20.40
2022-11-02T03:25:11.804Z,20.40
2022-11-02T03:30:19.132Z,20.40
2022-11-02T03:35:26.393Z,20.40
2022-11-02T03:40:33.894Z,20.40
2022-11-02T03:45:41.869Z,20.30
2022-11-02T03:50:49.982Z,20.40
2022-11-02T03:55:58.710Z,20.30
2022-11-02T04:01:05.009Z,20.40
2022-11-02T04:06:08.452Z,20.30
2022-11-02T04:11:29.643Z,20.30
2022-11-02T04:16:33.986Z,20.30
2022-11-02T04:21:36.926Z,20.30
2022-11-02T04:26:40.131Z,20.30
2022-11-02T04:31:44.462Z,20.30
2022-11-02T04:36:47.842Z,20.30
2022-11-02T04:41:50.832Z,20.30
2022-11-02T04:46:55.249Z,20.30
2022-11-02T04:51:58.195Z,20.30
2022-11-02T04:57:01.164Z,20.30
2022-11-02T05:02:05.611Z,20.30
2022-11-02T05:07:08.664Z,20.30
2022-11-02T05:12:11.622Z,20.30
2022-11-02T05:17:16.368Z,20.30
2022-11-02T05:22:19.954Z,20.30
2022-11-02T05:27:22.965Z,20.30
2022-11-02T05:32:28.127Z,20.30
2022-11-02T05:37:31.089Z,20.30
2022-11-02T05:42:34.476Z,20.30
2022-11-02T05:47:38.812Z,20.20
2022-11-02T05:52:41.786Z,20.20
2022-11-02T05:57:44.784Z,20.20
2022-11-02T06:02:49.215Z,20.20
2022-11-02T06:07:52.179Z,20.20
2022-11-02T06:12:58.815Z,20.20
2022-11-02T06:18:03.111Z,20.20
2022-11-02T06:23:06.430Z,20.20
2022-11-02T06:28:09.710Z,20.20
2022-11-02T06:33:14.356Z,20.20
2022-11-02T06:38:18.111Z,20.20
2022-11-02T06:43:21.443Z,20.20
2022-11-02T06:48:33.129Z,20.20
2022-11-02T06:53:37.891Z,20.20
2022-11-02T06:58:40.939Z,20.20
2022-11-02T07:03:45.371Z,20.20
2022-11-02T07:08:48.397Z,20.20
2022-11-02T07:13:51.395Z,20.20
2022-11-02T07:18:55.811Z,20.20
2022-11-02T07:23:58.880Z,20.20
2022-11-02T07:29:01.917Z,20.20
2022-11-02T07:34:06.386Z,20.20
2022-11-02T07:39:09.784Z,20.10
2022-11-02T07:44:12.770Z,20.20
2022-11-02T07:49:21.261Z,20.20
2022-11-02T07:54:24.691Z,20.20
2022-11-02T07:59:27.792Z,20.20
2022-11-02T08:04:32.251Z,20.20
2022-11-02T08:09:35.322Z,20.20
2022-11-02T08:14:38.441Z,20.20
2022-11-02T08:19:42.836Z,20.20
2022-11-02T08:24:45.950Z,20.20
2022-11-02T08:29:48.962Z,20.20
2022-11-02T08:34:53.301Z,20.20
2022-11-02T08:39:56.309Z,20.20
2022-11-02T08:44:59.328Z,20.20
2022-11-02T08:50:03.749Z,20.20
2022-11-02T08:55:07.740Z,20.20
2022-11-02T09:00:12.609Z,20.20
2022-11-02T09:05:17.068Z,20.30
2022-11-02T09:10:20.093Z,20.30
2022-11-02T09:15:23.513Z,20.30
2022-11-02T09:20:28.108Z,20.30
2022-11-02T09:25:31.100Z,20.30
2022-11-02T09:30:34.077Z,20.30
2022-11-02T09:35:40.793Z,20.30
2022-11-02T09:40:47.387Z,20.40
2022-11-02T09:45:56.546Z,20.40
2022-11-02T09:51:05.319Z,20.40
2022-11-02T09:56:10.095Z,20.40
2022-11-02T10:01:29.021Z,20.40
2022-11-02T10:06:37.477Z,20.40
2022-11-02T10:11:51.001Z,20.40
2022-11-02T10:17:00.143Z,20.40
2022-11-02T10:22:04.553Z,20.40
2022-11-02T10:27:16.030Z,20.40
2022-11-02T10:32:19.098Z,20.40
2022-11-02T10:37:42.150Z,20.40
2022-11-02T10:42:58.986Z,20.40
2022-11-02T10:48:07.812Z,20.40
2022-11-02T10:53:39.587Z,20.40
2022-11-02T10:58:43.319Z,20.40
2022-11-02T11:04:00.784Z,20.40
2022-11-02T11:09:08.379Z,20.40
2022-11-02T11:19:47.939Z,20.40
2022-11-02T11:24:52.479Z,20.50
2022-11-02T11:29:59.195Z,20.50
2022-11-02T11:35:03.679Z,20.50
2022-11-02T11:40:18.483Z,20.50
2022-11-02T11:45:24.806Z,20.50
2022-11-02T11:50:29.137Z,20.50
2022-11-02T11:55:34.397Z,20.50
2022-11-02T12:00:37.401Z,20.50
2022-11-02T12:05:51.241Z,20.50
2022-11-02T12:11:18.733Z,20.50
2022-11-02T12:16:31.152Z,20.50
2022-11-02T12:21:45.102Z,20.50
2022-11-02T12:27:02.571Z,20.50
2022-11-02T12:32:17.263Z,20.50
2022-11-02T12:37:40.444Z,20.50
2022-11-02T12:42:53.803Z,20.50
2022-11-02T12:47:59.650Z,20.50
2022-11-02T12:53:18.644Z,20.60
2022-11-02T12:58:27.273Z,20.60
2022-11-02T13:03:36.681Z,20.60
2022-11-02T13:08:43.343Z,20.60
2022-11-02T13:13:51.413Z,20.60
2022-11-02T13:18:58.150Z,20.60
2022-11-02T13:24:01.805Z,20.60
2022-11-02T13:29:14.412Z,20.60
2022-11-02T13:34:24.032Z,20.60
2022-11-02T13:39:36.000Z,20.60
2022-11-02T13:44:59.785Z,20.60
2022-11-02T13:50:04.833Z,20.60
2022-11-02T13:55:11.658Z,20.60
2022-11-02T14:00:31.261Z,20.60
2022-11-02T14:05:36.642Z,20.60
2022-11-02T14:10:42.101Z,20.60
2022-11-02T14:15:53.885Z,20.70
2022-11-02T14:20:56.844Z,20.90
2022-11-02T14:26:00.023Z,21.10
2022-11-02T14:31:30.671Z,21.20
2022-11-02T14:36:55.081Z,21.20
2022-11-02T14:42:16.779Z,21.30
2022-11-02T14:47:27.958Z,21.30
2022-11-02T14:52:33.953Z,21.30
2022-11-02T14:57:39.639Z,21.30
2022-11-02T15:02:44.899Z,21.30
2022-11-02T15:07:52.704Z,21.30
2022-11-02T15:13:33.904Z,21.50
2022-11-02T15:18:38.318Z,21.70
2022-11-02T15:28:59.708Z,21.80
2022-11-02T15:34:06.707Z,21.80
2022-11-02T15:39:12.544Z,21.90
2022-11-02T15:44:33.735Z,21.90
2022-11-02T15:50:02.130Z,21.90
2022-11-02T15:55:16.221Z,21.90
2022-11-02T16:00:21.768Z,21.90
2022-11-02T16:05:26.673Z,21.90
2022-11-02T16:10:31.647Z,21.90
2022-11-02T16:15:38.439Z,21.90
2022-11-02T16:20:42.373Z,21.80
2022-11-02T16:25:48.372Z,21.80
2022-11-02T16:31:08.731Z,21.90
2022-11-02T16:36:19.849Z,22.00
2022-11-02T16:41:23.266Z,22.10
2022-11-02T16:46:33.118Z,22.10
2022-11-02T16:51:36.119Z,22.10
2022-11-02T16:56:39.523Z,22.10
2022-11-02T17:01:44.736Z,22.10
2022-11-02T17:06:50.191Z,22.10
2022-11-02T17:11:55.335Z,22.10
2022-11-02T17:17:02.725Z,22.10
2022-11-02T17:22:11.628Z,22.00
2022-11-02T17:27:19.636Z,22.00
2022-11-02T17:32:24.038Z,21.90
2022-11-02T17:37:29.328Z,22.00
2022-11-02T17:42:49.998Z,22.00
2022-11-02T17:47:54.523Z,21.90
2022-11-02T17:52:59.912Z,21.90
2022-11-02T17:58:03.298Z,21.90
2022-11-02T18:03:15.702Z,21.90
2022-11-02T18:08:18.692Z,21.90
2022-11-02T18:13:23.332Z,22.10
2022-11-02T18:18:27.696Z,22.20
2022-11-02T18:23:31.416Z,22.30
2022-11-02T18:28:34.562Z,22.40
2022-11-02T18:33:38.937Z,22.40
2022-11-02T18:38:42.283Z,22.40
2022-11-02T18:43:45.281Z,22.40
2022-11-02T18:48:49.728Z,22.40
2022-11-02T18:53:56.680Z,22.40
2022-11-02T18:59:00.228Z,22.40
2022-11-02T19:04:05.203Z,22.30
2022-11-02T19:09:22.964Z,22.30
2022-11-02T19:14:25.982Z,22.20
2022-11-02T19:19:30.329Z,22.20
2022-11-02T19:24:33.313Z,22.30
2022-11-02T19:29:36.356Z,22.20
2022-11-02T19:34:40.839Z,22.20
2022-11-02T19:39:43.818Z,22.10
2022-11-02T19:44:46.749Z,22.10
2022-11-02T19:49:51.066Z,22.10
2022-11-02T19:54:54.036Z,22.20
2022-11-02T19:59:57.021Z,22.30
2022-11-02T20:05:01.374Z,22.40
2022-11-02T20:10:04.530Z,22.50
2022-11-02T20:15:10.811Z,22.50
2022-11-02T20:20:15.284Z,22.50
2022-11-02T20:25:18.394Z,22.50
2022-11-02T20:30:22.320Z,22.40
2022-11-02T20:35:26.662Z,22.40
2022-11-02T20:40:32.211Z,22.30
2022-11-02T20:45:35.547Z,22.20
2022-11-02T20:50:39.884Z,22.20
2022-11-02T20:55:43.598Z,22.10
2022-11-02T21:00:47.609Z,22.10
2022-11-02T21:05:52.269Z,22.10
2022-11-02T21:10:59.089Z,22.00
2022-11-02T21:16:04.114Z,22.00
2022-11-02T21:21:10.197Z,22.10
2022-11-02T21:26:14.492Z,22.30
2022-11-02T21:31:20.368Z,22.50
2022-11-02T21:36:24.745Z,22.50
2022-11-02T21:41:29.446Z,22.50
2022-11-02T21:46:32.455Z,22.50
2022-11-02T21:51:38.425Z,22.50
2022-11-02T21:56:41.547Z,22.50
2022-11-02T22:01:49.156Z,22.50
2022-11-02T22:06:53.892Z,22.40
2022-11-02T22:12:11.409Z,22.40
2022-11-02T22:17:43.331Z,22.30
2022-11-02T22:22:38.894Z,22.30
2022-11-02T22:27:41.869Z,22.20
2022-11-02T22:32:44.819Z,22.20
2022-11-02T22:38:06.621Z,22.10
2022-11-02T22:43:11.025Z,22.00
2022-11-02T22:48:14.091Z,22.00
2022-11-02T22:53:18.481Z,22.00
2022-11-02T22:58:21.459Z,21.90
2022-11-02T23:03:24.812Z,21.90
2022-11-02T23:08:30.265Z,21.80
2022-11-02T23:13:35.328Z,21.70
2022-11-02T23:18:52.154Z,21.70
2022-11-02T23:24:14.039Z,21.60
2022-11-02T23:29:34.361Z,21.60
2022-11-02T23:34:37.367Z,21.60
2022-11-02T23:39:50.362Z,21.50
2022-11-02T23:44:53.657Z,21.50
2022-11-02T23:49:56.625Z,21.50
2022-11-02T23:55:29.621Z,21.40
